sensor_id;sensor_type;location;lat;lon;timestamp;temperature;humidity
35635;DHT22;21757;43.610;1.440;2022-11-30T00:00:35;6.30;99.90
35635;DHT22;21757;43.610;1.440;2022-11-30T00:03:01;6.20;99.90
35635;DHT22;21757;43.610;1.440;2022-11-30T00:05:27;6.20;99.90
35635;DHT22;21757;43.610;1.440;2022-11-30T00:07:53;6.20;99.90
35635;DHT22;21757;43.610;1.440;2022-11-30T00:10:20;6.20;99.90
35635;DHT22;21757;43.610;1.440;2022-11-30T00:12:46;6.20;99.90
35635;DHT22;21757;43.610;1.440;2022-11-30T00:15:13;6.20;99.90
35635;DHT22;21757;43.610;1.440;2022-11-30T00:17:45;6.10;99.90
35635;DHT22;21757;43.610;1.440;2022-11-30T00:20:13;6.10;99.90
35635;DHT22;21757;43.610;1.440;2022-11-30T00:22:39;6.10;99.90
35635;DHT22;21757;43.610;1.440;2022-11-30T00:25:05;6.10;99.90
35635;DHT22;21757;43.610;1.440;2022-11-30T00:27:32;6.10;99.90
35635;DHT22;21757;43.610;1.440;2022-11-30T00:29:58;6.20;99.90
35635;DHT22;21757;43.610;1.440;2022-11-30T00:32:26;6.10;99.90
35635;DHT22;21757;43.610;1.440;2022-11-30T00:34:52;6.10;99.90
35635;DHT22;21757;43.610;1.440;2022-11-30T00:37:18;6.10;99.90
35635;DHT22;21757;43.610;1.440;2022-11-30T00:39:43;6.10;99.90
35635;DHT22;21757;43.610;1.440;2022-11-30T00:42:10;6.00;99.90
35635;DHT22;21757;43.610;1.440;2022-11-30T00:44:35;6.00;99.90
35635;DHT22;21757;43.610;1.440;2022-11-30T00:47:01;6.00;99.90
35635;DHT22;21757;43.610;1.440;2022-11-30T00:49:27;6.00;99.90
35635;DHT22;21757;43.610;1.440;2022-11-30T00:51:52;6.00;99.90
35635;DHT22;21757;43.610;1.440;2022-11-30T00:54:18;6.00;99.90
35635;DHT22;21757;43.610;1.440;2022-11-30T00:56:44;6.00;99.90
35635;DHT22;21757;43.610;1.440;2022-11-30T00:59:09;6.00;99.90
35635;DHT22;21757;43.610;1.440;2022-11-30T01:01:36;5.90;99.90
35635;DHT22;21757;43.610;1.440;2022-11-30T01:04:02;5.90;99.90
35635;DHT22;21757;43.610;1.440;2022-11-30T01:06:28;6.00;99.90
35635;DHT22;21757;43.610;1.440;2022-11-30T01:08:54;6.10;99.90
35635;DHT22;21757;43.610;1.440;2022-11-30T01:11:20;6.10;99.90
35635;DHT22;21757;43.610;1.440;2022-11-30T01:13:46;6.20;99.90
35635;DHT22;21757;43.610;1.440;2022-11-30T01:16:15;6.30;99.90
35635;DHT22;21757;43.610;1.440;2022-11-30T01:18:42;6.40;99.90
35635;DHT22;21757;43.610;1.440;2022-11-30T01:21:10;6.50;99.90
35635;DHT22;21757;43.610;1.440;2022-11-30T01:23:36;6.50;99.90
35635;DHT22;21757;43.610;1.440;2022-11-30T01:26:01;6.50;99.90
35635;DHT22;21757;43.610;1.440;2022-11-30T01:28:27;6.50;99.90
35635;DHT22;21757;43.610;1.440;2022-11-30T01:31:01;6.60;99.90
35635;DHT22;21757;43.610;1.440;2022-11-30T01:33:28;6.60;99.90
35635;DHT22;21757;43.610;1.440;2022-11-30T01:36:04;6.60;99.90
35635;DHT22;21757;43.610;1.440;2022-11-30T01:38:32;6.70;99.90
35635;DHT22;21757;43.610;1.440;2022-11-30T01:40:58;6.70;99.90
35635;DHT22;21757;43.610;1.440;2022-11-30T01:43:44;6.70;99.90
35635;DHT22;21757;43.610;1.440;2022-11-30T01:46:31;6.60;99.90
35635;DHT22;21757;43.610;1.440;2022-11-30T01:49:54;6.60;99.90
35635;DHT22;21757;43.610;1.440;2022-11-30T01:57:46;6.50;99.90
35635;DHT22;21757;43.610;1.440;2022-11-30T02:00:14;6.60;99.90
35635;DHT22;21757;43.610;1.440;2022-11-30T02:02:58;6.60;99.90
35635;DHT22;21757;43.610;1.440;2022-11-30T02:05:25;6.50;99.90
35635;DHT22;21757;43.610;1.440;2022-11-30T02:07:52;6.30;99.90
35635;DHT22;21757;43.610;1.440;2022-11-30T02:10:24;6.30;99.90
35635;DHT22;21757;43.610;1.440;2022-11-30T02:15:49;6.20;99.90
35635;DHT22;21757;43.610;1.440;2022-11-30T02:18:31;6.20;99.90
35635;DHT22;21757;43.610;1.440;2022-11-30T02:21:05;6.10;99.90
35635;DHT22;21757;43.610;1.440;2022-11-30T02:26:26;6.10;99.90
35635;DHT22;21757;43.610;1.440;2022-11-30T02:34:12;6.10;99.90
35635;DHT22;21757;43.610;1.440;2022-11-30T02:36:38;6.10;99.90
35635;DHT22;21757;43.610;1.440;2022-11-30T02:39:05;6.10;99.90
35635;DHT22;21757;43.610;1.440;2022-11-30T02:41:36;6.20;99.90
35635;DHT22;21757;43.610;1.440;2022-11-30T02:44:02;6.10;99.90
35635;DHT22;21757;43.610;1.440;2022-11-30T02:49:09;6.10;99.90
35635;DHT22;21757;43.610;1.440;2022-11-30T02:51:38;6.10;99.90
35635;DHT22;21757;43.610;1.440;2022-11-30T02:54:05;6.20;99.90
35635;DHT22;21757;43.610;1.440;2022-11-30T02:56:31;6.20;99.90
35635;DHT22;21757;43.610;1.440;2022-11-30T02:58:57;6.30;99.90
35635;DHT22;21757;43.610;1.440;2022-11-30T03:01:24;6.30;99.90
35635;DHT22;21757;43.610;1.440;2022-11-30T03:03:50;6.30;99.90
35635;DHT22;21757;43.610;1.440;2022-11-30T03:06:16;6.40;99.90
35635;DHT22;21757;43.610;1.440;2022-11-30T03:08:41;6.40;99.90
35635;DHT22;21757;43.610;1.440;2022-11-30T03:11:07;6.40;99.90
35635;DHT22;21757;43.610;1.440;2022-11-30T03:13:33;6.40;99.90
35635;DHT22;21757;43.610;1.440;2022-11-30T03:16:06;6.40;99.90
35635;DHT22;21757;43.610;1.440;2022-11-30T03:18:33;6.40;99.90
35635;DHT22;21757;43.610;1.440;2022-11-30T03:20:59;6.50;99.90
35635;DHT22;21757;43.610;1.440;2022-11-30T03:23:24;6.50;99.90
35635;DHT22;21757;43.610;1.440;2022-11-30T03:25:50;6.30;99.90
35635;DHT22;21757;43.610;1.440;2022-11-30T03:28:16;6.40;99.90
35635;DHT22;21757;43.610;1.440;2022-11-30T03:30:47;6.40;99.90
35635;DHT22;21757;43.610;1.440;2022-11-30T03:33:13;6.50;99.90
35635;DHT22;21757;43.610;1.440;2022-11-30T03:35:39;6.60;99.90
35635;DHT22;21757;43.610;1.440;2022-11-30T03:38:05;6.60;99.90
35635;DHT22;21757;43.610;1.440;2022-11-30T03:40:30;6.60;99.90
35635;DHT22;21757;43.610;1.440;2022-11-30T03:42:56;6.50;99.90
35635;DHT22;21757;43.610;1.440;2022-11-30T03:45:22;6.50;99.90
35635;DHT22;21757;43.610;1.440;2022-11-30T03:47:47;6.50;99.90
35635;DHT22;21757;43.610;1.440;2022-11-30T03:50:13;6.60;99.90
35635;DHT22;21757;43.610;1.440;2022-11-30T03:52:39;6.60;99.90
35635;DHT22;21757;43.610;1.440;2022-11-30T03:55:05;6.60;99.90
35635;DHT22;21757;43.610;1.440;2022-11-30T03:57:31;6.70;99.90
35635;DHT22;21757;43.610;1.440;2022-11-30T03:59:57;6.70;99.90
35635;DHT22;21757;43.610;1.440;2022-11-30T04:02:22;6.80;99.90
35635;DHT22;21757;43.610;1.440;2022-11-30T04:04:48;6.90;99.90
35635;DHT22;21757;43.610;1.440;2022-11-30T04:07:14;6.80;99.90
35635;DHT22;21757;43.610;1.440;2022-11-30T04:09:39;6.90;99.90
35635;DHT22;21757;43.610;1.440;2022-11-30T04:12:05;6.90;99.90
35635;DHT22;21757;43.610;1.440;2022-11-30T04:14:31;6.90;99.90
35635;DHT22;21757;43.610;1.440;2022-11-30T04:16:56;6.90;99.90
35635;DHT22;21757;43.610;1.440;2022-11-30T04:19:22;6.90;99.90
35635;DHT22;21757;43.610;1.440;2022-11-30T04:21:48;6.80;99.90
35635;DHT22;21757;43.610;1.440;2022-11-30T04:24:15;6.90;99.90
35635;DHT22;21757;43.610;1.440;2022-11-30T04:26:41;6.90;99.90
35635;DHT22;21757;43.610;1.440;2022-11-30T04:29:07;7.00;99.90
35635;DHT22;21757;43.610;1.440;2022-11-30T04:31:33;7.10;99.90
35635;DHT22;21757;43.610;1.440;2022-11-30T04:33:59;7.10;99.90
35635;DHT22;21757;43.610;1.440;2022-11-30T04:36:24;6.80;99.90
35635;DHT22;21757;43.610;1.440;2022-11-30T04:38:50;6.80;99.90
35635;DHT22;21757;43.610;1.440;2022-11-30T04:41:16;6.60;99.90
35635;DHT22;21757;43.610;1.440;2022-11-30T04:43:41;6.70;99.90
35635;DHT22;21757;43.610;1.440;2022-11-30T04:46:07;6.80;99.90
35635;DHT22;21757;43.610;1.440;2022-11-30T04:48:33;6.90;99.90
35635;DHT22;21757;43.610;1.440;2022-11-30T04:51:01;6.90;99.90
35635;DHT22;21757;43.610;1.440;2022-11-30T04:53:27;7.00;99.90
35635;DHT22;21757;43.610;1.440;2022-11-30T04:55:53;7.00;99.90
35635;DHT22;21757;43.610;1.440;2022-11-30T04:58:18;7.10;99.90
35635;DHT22;21757;43.610;1.440;2022-11-30T05:00:44;7.10;99.90
35635;DHT22;21757;43.610;1.440;2022-11-30T05:03:10;7.10;99.90
35635;DHT22;21757;43.610;1.440;2022-11-30T05:05:35;6.80;99.90
35635;DHT22;21757;43.610;1.440;2022-11-30T05:08:01;6.90;99.90
35635;DHT22;21757;43.610;1.440;2022-11-30T05:10:28;6.90;99.90
35635;DHT22;21757;43.610;1.440;2022-11-30T05:12:55;6.90;99.90
35635;DHT22;21757;43.610;1.440;2022-11-30T05:15:21;7.00;99.90
35635;DHT22;21757;43.610;1.440;2022-11-30T05:17:47;7.00;99.90
35635;DHT22;21757;43.610;1.440;2022-11-30T05:20:13;6.70;99.90
35635;DHT22;21757;43.610;1.440;2022-11-30T05:22:39;6.60;99.90
35635;DHT22;21757;43.610;1.440;2022-11-30T05:25:05;6.50;99.90
35635;DHT22;21757;43.610;1.440;2022-11-30T05:27:31;6.40;99.90
35635;DHT22;21757;43.610;1.440;2022-11-30T05:29:56;6.30;99.90
35635;DHT22;21757;43.610;1.440;2022-11-30T05:32:22;6.20;99.90
35635;DHT22;21757;43.610;1.440;2022-11-30T05:34:48;6.20;99.90
35635;DHT22;21757;43.610;1.440;2022-11-30T05:37:13;6.30;99.90
35635;DHT22;21757;43.610;1.440;2022-11-30T05:39:39;6.40;99.90
35635;DHT22;21757;43.610;1.440;2022-11-30T05:42:05;6.30;99.90
35635;DHT22;21757;43.610;1.440;2022-11-30T05:44:30;6.20;99.90
35635;DHT22;21757;43.610;1.440;2022-11-30T05:46:56;6.30;99.90
35635;DHT22;21757;43.610;1.440;2022-11-30T05:49:21;6.20;99.90
35635;DHT22;21757;43.610;1.440;2022-11-30T05:51:47;6.20;99.90
35635;DHT22;21757;43.610;1.440;2022-11-30T05:54:13;6.20;99.90
35635;DHT22;21757;43.610;1.440;2022-11-30T05:56:38;6.10;99.90
35635;DHT22;21757;43.610;1.440;2022-11-30T05:59:04;6.10;99.90
35635;DHT22;21757;43.610;1.440;2022-11-30T06:01:30;6.20;99.90
35635;DHT22;21757;43.610;1.440;2022-11-30T06:03:55;6.30;99.90
35635;DHT22;21757;43.610;1.440;2022-11-30T06:06:21;6.30;99.90
35635;DHT22;21757;43.610;1.440;2022-11-30T06:08:48;6.10;99.90
35635;DHT22;21757;43.610;1.440;2022-11-30T06:11:15;6.10;99.90
35635;DHT22;21757;43.610;1.440;2022-11-30T06:13:41;6.30;99.90
35635;DHT22;21757;43.610;1.440;2022-11-30T06:16:07;6.20;99.90
35635;DHT22;21757;43.610;1.440;2022-11-30T06:18:33;6.00;99.90
35635;DHT22;21757;43.610;1.440;2022-11-30T06:21:07;5.90;99.90
35635;DHT22;21757;43.610;1.440;2022-11-30T06:23:34;6.00;99.90
35635;DHT22;21757;43.610;1.440;2022-11-30T06:26:05;6.20;99.90
35635;DHT22;21757;43.610;1.440;2022-11-30T06:28:31;6.20;99.90
35635;DHT22;21757;43.610;1.440;2022-11-30T06:30:58;6.10;99.90
35635;DHT22;21757;43.610;1.440;2022-11-30T06:33:24;6.00;99.90
35635;DHT22;21757;43.610;1.440;2022-11-30T06:35:50;5.90;99.90
35635;DHT22;21757;43.610;1.440;2022-11-30T06:38:15;6.00;99.90
35635;DHT22;21757;43.610;1.440;2022-11-30T06:40:41;6.20;99.90
35635;DHT22;21757;43.610;1.440;2022-11-30T06:43:07;6.10;99.90
35635;DHT22;21757;43.610;1.440;2022-11-30T06:45:32;6.10;99.90
35635;DHT22;21757;43.610;1.440;2022-11-30T06:47:58;6.20;99.90
35635;DHT22;21757;43.610;1.440;2022-11-30T06:50:24;6.20;99.90
35635;DHT22;21757;43.610;1.440;2022-11-30T06:52:50;6.20;99.90
35635;DHT22;21757;43.610;1.440;2022-11-30T06:55:16;6.20;99.90
35635;DHT22;21757;43.610;1.440;2022-11-30T06:57:41;6.30;99.90
35635;DHT22;21757;43.610;1.440;2022-11-30T07:00:08;6.30;99.90
35635;DHT22;21757;43.610;1.440;2022-11-30T07:02:35;6.30;99.90
35635;DHT22;21757;43.610;1.440;2022-11-30T07:05:01;6.30;99.90
35635;DHT22;21757;43.610;1.440;2022-11-30T07:07:29;6.30;99.90
35635;DHT22;21757;43.610;1.440;2022-11-30T07:09:56;6.40;99.90
35635;DHT22;21757;43.610;1.440;2022-11-30T07:12:22;6.40;99.90
35635;DHT22;21757;43.610;1.440;2022-11-30T07:14:48;6.40;99.90
35635;DHT22;21757;43.610;1.440;2022-11-30T07:17:17;6.40;99.90
35635;DHT22;21757;43.610;1.440;2022-11-30T07:19:43;6.20;99.90
35635;DHT22;21757;43.610;1.440;2022-11-30T07:22:08;6.20;99.90
35635;DHT22;21757;43.610;1.440;2022-11-30T07:24:34;6.10;99.90
35635;DHT22;21757;43.610;1.440;2022-11-30T07:27:18;6.20;99.90
35635;DHT22;21757;43.610;1.440;2022-11-30T07:29:44;6.30;99.90
35635;DHT22;21757;43.610;1.440;2022-11-30T07:32:13;6.20;99.90
35635;DHT22;21757;43.610;1.440;2022-11-30T07:34:38;6.30;99.90
35635;DHT22;21757;43.610;1.440;2022-11-30T07:37:04;6.20;99.90
35635;DHT22;21757;43.610;1.440;2022-11-30T07:39:30;6.30;99.90
35635;DHT22;21757;43.610;1.440;2022-11-30T07:41:56;6.40;99.90
35635;DHT22;21757;43.610;1.440;2022-11-30T07:44:21;6.40;99.90
35635;DHT22;21757;43.610;1.440;2022-11-30T07:46:47;6.40;99.90
35635;DHT22;21757;43.610;1.440;2022-11-30T07:49:13;6.40;99.90
35635;DHT22;21757;43.610;1.440;2022-11-30T07:51:38;6.50;99.90
35635;DHT22;21757;43.610;1.440;2022-11-30T07:54:04;6.60;99.90
35635;DHT22;21757;43.610;1.440;2022-11-30T07:56:30;6.60;99.90
35635;DHT22;21757;43.610;1.440;2022-11-30T07:58:58;6.50;99.90
35635;DHT22;21757;43.610;1.440;2022-11-30T08:01:27;6.40;99.90
35635;DHT22;21757;43.610;1.440;2022-11-30T08:03:53;6.40;99.90
35635;DHT22;21757;43.610;1.440;2022-11-30T08:06:30;6.50;99.90
35635;DHT22;21757;43.610;1.440;2022-11-30T08:08:58;6.60;99.90
35635;DHT22;21757;43.610;1.440;2022-11-30T08:11:26;6.50;99.90
35635;DHT22;21757;43.610;1.440;2022-11-30T08:13:52;6.50;99.90
35635;DHT22;21757;43.610;1.440;2022-11-30T08:16:20;6.60;99.90
35635;DHT22;21757;43.610;1.440;2022-11-30T08:18:46;6.60;99.90
35635;DHT22;21757;43.610;1.440;2022-11-30T08:21:13;6.40;99.90
35635;DHT22;21757;43.610;1.440;2022-11-30T08:23:50;6.20;99.90
35635;DHT22;21757;43.610;1.440;2022-11-30T08:26:27;6.30;99.90
35635;DHT22;21757;43.610;1.440;2022-11-30T08:28:54;6.30;99.90
35635;DHT22;21757;43.610;1.440;2022-11-30T08:31:25;6.40;99.90
35635;DHT22;21757;43.610;1.440;2022-11-30T08:34:09;6.40;99.90
35635;DHT22;21757;43.610;1.440;2022-11-30T08:36:35;6.60;99.90
35635;DHT22;21757;43.610;1.440;2022-11-30T08:39:02;6.70;99.90
35635;DHT22;21757;43.610;1.440;2022-11-30T08:41:29;6.70;99.90
35635;DHT22;21757;43.610;1.440;2022-11-30T08:43:55;6.70;99.90
35635;DHT22;21757;43.610;1.440;2022-11-30T08:46:22;6.70;99.90
35635;DHT22;21757;43.610;1.440;2022-11-30T08:48:49;6.70;99.90
35635;DHT22;21757;43.610;1.440;2022-11-30T08:51:16;6.80;99.90
35635;DHT22;21757;43.610;1.440;2022-11-30T08:53:42;6.80;99.90
35635;DHT22;21757;43.610;1.440;2022-11-30T08:56:12;6.90;99.90
35635;DHT22;21757;43.610;1.440;2022-11-30T08:58:39;7.00;99.90
35635;DHT22;21757;43.610;1.440;2022-11-30T09:01:24;6.90;99.90
35635;DHT22;21757;43.610;1.440;2022-11-30T09:03:54;6.90;99.90
35635;DHT22;21757;43.610;1.440;2022-11-30T09:06:25;7.00;99.90
35635;DHT22;21757;43.610;1.440;2022-11-30T09:08:53;7.00;99.90
35635;DHT22;21757;43.610;1.440;2022-11-30T09:11:29;6.70;99.90
35635;DHT22;21757;43.610;1.440;2022-11-30T09:13:59;6.70;99.90
35635;DHT22;21757;43.610;1.440;2022-11-30T09:16:25;6.80;99.90
35635;DHT22;21757;43.610;1.440;2022-11-30T09:18:52;6.90;99.90
35635;DHT22;21757;43.610;1.440;2022-11-30T09:21:20;7.10;99.90
35635;DHT22;21757;43.610;1.440;2022-11-30T09:23:47;7.10;99.90
35635;DHT22;21757;43.610;1.440;2022-11-30T09:26:16;7.10;99.90
35635;DHT22;21757;43.610;1.440;2022-11-30T09:28:43;7.10;99.90
35635;DHT22;21757;43.610;1.440;2022-11-30T09:31:14;7.20;99.90
35635;DHT22;21757;43.610;1.440;2022-11-30T09:33:40;7.10;99.90
35635;DHT22;21757;43.610;1.440;2022-11-30T09:36:11;6.90;99.90
35635;DHT22;21757;43.610;1.440;2022-11-30T09:38:38;7.10;99.90
35635;DHT22;21757;43.610;1.440;2022-11-30T09:41:12;7.20;99.90
35635;DHT22;21757;43.610;1.440;2022-11-30T09:44:07;7.30;99.90
35635;DHT22;21757;43.610;1.440;2022-11-30T09:46:42;7.40;99.90
35635;DHT22;21757;43.610;1.440;2022-11-30T09:49:20;7.50;99.90
35635;DHT22;21757;43.610;1.440;2022-11-30T09:51:48;7.50;99.90
35635;DHT22;21757;43.610;1.440;2022-11-30T09:54:19;7.60;99.90
35635;DHT22;21757;43.610;1.440;2022-11-30T09:56:46;7.60;99.90
35635;DHT22;21757;43.610;1.440;2022-11-30T10:01:38;7.60;99.90
35635;DHT22;21757;43.610;1.440;2022-11-30T10:04:04;7.60;99.90
35635;DHT22;21757;43.610;1.440;2022-11-30T10:06:45;7.50;99.90
35635;DHT22;21757;43.610;1.440;2022-11-30T10:09:49;7.50;99.90
35635;DHT22;21757;43.610;1.440;2022-11-30T10:14:51;7.20;99.90
35635;DHT22;21757;43.610;1.440;2022-11-30T10:25:43;6.50;99.90
35635;DHT22;21757;43.610;1.440;2022-11-30T10:28:17;6.60;99.90
35635;DHT22;21757;43.610;1.440;2022-11-30T10:30:44;6.50;99.90
35635;DHT22;21757;43.610;1.440;2022-11-30T10:33:25;6.80;99.90
35635;DHT22;21757;43.610;1.440;2022-11-30T10:35:54;6.90;99.90
35635;DHT22;21757;43.610;1.440;2022-11-30T10:38:22;7.00;99.90
35635;DHT22;21757;43.610;1.440;2022-11-30T10:41:07;7.20;99.90
35635;DHT22;21757;43.610;1.440;2022-11-30T10:43:51;6.70;99.90
35635;DHT22;21757;43.610;1.440;2022-11-30T10:46:33;6.90;99.90
35635;DHT22;21757;43.610;1.440;2022-11-30T10:49:04;6.90;99.90
35635;DHT22;21757;43.610;1.440;2022-11-30T10:51:32;7.10;99.90
35635;DHT22;21757;43.610;1.440;2022-11-30T10:54:00;6.90;99.90
35635;DHT22;21757;43.610;1.440;2022-11-30T10:56:27;7.10;99.90
35635;DHT22;21757;43.610;1.440;2022-11-30T10:58:59;7.10;99.90
35635;DHT22;21757;43.610;1.440;2022-11-30T11:07:17;6.90;99.90
35635;DHT22;21757;43.610;1.440;2022-11-30T11:09:49;6.90;99.90
35635;DHT22;21757;43.610;1.440;2022-11-30T11:12:23;6.70;99.90
35635;DHT22;21757;43.610;1.440;2022-11-30T11:15:17;6.90;99.90
35635;DHT22;21757;43.610;1.440;2022-11-30T11:17:43;7.10;99.90
35635;DHT22;21757;43.610;1.440;2022-11-30T11:20:30;7.20;99.90
35635;DHT22;21757;43.610;1.440;2022-11-30T11:22:56;7.20;99.90
35635;DHT22;21757;43.610;1.440;2022-11-30T11:25:34;7.00;99.90
35635;DHT22;21757;43.610;1.440;2022-11-30T11:28:13;7.00;99.90
35635;DHT22;21757;43.610;1.440;2022-11-30T11:30:40;6.80;99.90
35635;DHT22;21757;43.610;1.440;2022-11-30T11:35:39;6.80;99.90
35635;DHT22;21757;43.610;1.440;2022-11-30T11:41:00;6.90;99.90
35635;DHT22;21757;43.610;1.440;2022-11-30T11:43:31;7.10;99.90
35635;DHT22;21757;43.610;1.440;2022-11-30T11:46:09;7.10;99.90
35635;DHT22;21757;43.610;1.440;2022-11-30T11:48:39;7.30;99.90
35635;DHT22;21757;43.610;1.440;2022-11-30T11:51:08;7.40;99.90
35635;DHT22;21757;43.610;1.440;2022-11-30T11:53:49;7.30;99.90
35635;DHT22;21757;43.610;1.440;2022-11-30T11:56:19;7.20;99.90
35635;DHT22;21757;43.610;1.440;2022-11-30T11:59:14;7.40;99.90
35635;DHT22;21757;43.610;1.440;2022-11-30T12:02:00;7.20;99.90
35635;DHT22;21757;43.610;1.440;2022-11-30T12:04:44;6.90;99.90
35635;DHT22;21757;43.610;1.440;2022-11-30T12:07:27;7.00;99.90
35635;DHT22;21757;43.610;1.440;2022-11-30T12:10:04;7.10;99.90
35635;DHT22;21757;43.610;1.440;2022-11-30T12:12:31;7.30;99.90
35635;DHT22;21757;43.610;1.440;2022-11-30T12:14:57;7.50;99.90
35635;DHT22;21757;43.610;1.440;2022-11-30T12:17:44;7.70;99.90
35635;DHT22;21757;43.610;1.440;2022-11-30T12:20:25;7.90;99.90
35635;DHT22;21757;43.610;1.440;2022-11-30T12:26:24;7.80;99.90
35635;DHT22;21757;43.610;1.440;2022-11-30T12:29:03;7.70;99.90
35635;DHT22;21757;43.610;1.440;2022-11-30T12:42:08;7.80;99.90
35635;DHT22;21757;43.610;1.440;2022-11-30T12:58:28;8.00;99.90
35635;DHT22;21757;43.610;1.440;2022-11-30T13:03:48;7.70;99.90
35635;DHT22;21757;43.610;1.440;2022-11-30T13:06:20;7.90;99.90
35635;DHT22;21757;43.610;1.440;2022-11-30T13:08:54;7.80;99.90
35635;DHT22;21757;43.610;1.440;2022-11-30T13:11:38;7.80;99.90
35635;DHT22;21757;43.610;1.440;2022-11-30T13:14:24;7.70;99.90
35635;DHT22;21757;43.610;1.440;2022-11-30T13:17:04;7.50;99.90
35635;DHT22;21757;43.610;1.440;2022-11-30T13:19:57;7.40;99.90
35635;DHT22;21757;43.610;1.440;2022-11-30T13:31:18;7.50;99.90
35635;DHT22;21757;43.610;1.440;2022-11-30T13:33:47;7.40;99.90
35635;DHT22;21757;43.610;1.440;2022-11-30T13:41:44;7.40;99.90
35635;DHT22;21757;43.610;1.440;2022-11-30T13:44:46;7.40;99.90
35635;DHT22;21757;43.610;1.440;2022-11-30T13:47:31;7.60;99.90
35635;DHT22;21757;43.610;1.440;2022-11-30T13:50:14;7.20;99.90
35635;DHT22;21757;43.610;1.440;2022-11-30T13:53:07;7.20;99.90
35635;DHT22;21757;43.610;1.440;2022-11-30T13:58:22;7.20;99.90
35635;DHT22;21757;43.610;1.440;2022-11-30T14:03:35;7.20;99.90
35635;DHT22;21757;43.610;1.440;2022-11-30T14:09:16;7.10;99.90
35635;DHT22;21757;43.610;1.440;2022-11-30T14:23:18;7.20;99.90
35635;DHT22;21757;43.610;1.440;2022-11-30T14:25:57;7.10;99.90
35635;DHT22;21757;43.610;1.440;2022-11-30T14:29:14;7.20;99.90
35635;DHT22;21757;43.610;1.440;2022-11-30T14:31:20;7.20;99.90
35635;DHT22;21757;43.610;1.440;2022-11-30T14:33:56;7.20;99.90
35635;DHT22;21757;43.610;1.440;2022-11-30T14:36:27;7.20;99.90
35635;DHT22;21757;43.610;1.440;2022-11-30T14:38:57;7.10;99.90
35635;DHT22;21757;43.610;1.440;2022-11-30T14:41:27;7.20;99.90
35635;DHT22;21757;43.610;1.440;2022-11-30T14:44:05;7.20;99.90
35635;DHT22;21757;43.610;1.440;2022-11-30T14:46:32;7.10;99.90
35635;DHT22;21757;43.610;1.440;2022-11-30T14:51:38;7.00;99.90
35635;DHT22;21757;43.610;1.440;2022-11-30T14:56:47;7.00;99.90
35635;DHT22;21757;43.610;1.440;2022-11-30T15:02:13;7.20;99.90
35635;DHT22;21757;43.610;1.440;2022-11-30T15:04:41;6.80;99.90
35635;DHT22;21757;43.610;1.440;2022-11-30T15:07:12;6.80;99.90
35635;DHT22;21757;43.610;1.440;2022-11-30T15:09:42;6.70;99.90
35635;DHT22;21757;43.610;1.440;2022-11-30T15:12:08;6.80;99.90
35635;DHT22;21757;43.610;1.440;2022-11-30T15:14:34;6.90;99.90
35635;DHT22;21757;43.610;1.440;2022-11-30T15:17:00;6.90;99.90
35635;DHT22;21757;43.610;1.440;2022-11-30T15:19:34;7.10;99.90
35635;DHT22;21757;43.610;1.440;2022-11-30T15:22:00;6.90;99.90
35635;DHT22;21757;43.610;1.440;2022-11-30T15:24:26;7.10;99.90
35635;DHT22;21757;43.610;1.440;2022-11-30T15:27:03;7.00;99.90
35635;DHT22;21757;43.610;1.440;2022-11-30T15:29:33;7.00;99.90
35635;DHT22;21757;43.610;1.440;2022-11-30T15:32:02;7.20;99.90
35635;DHT22;21757;43.610;1.440;2022-11-30T15:34:37;7.20;99.90
35635;DHT22;21757;43.610;1.440;2022-11-30T15:37:08;7.10;99.90
35635;DHT22;21757;43.610;1.440;2022-11-30T15:39:34;7.10;99.90
35635;DHT22;21757;43.610;1.440;2022-11-30T15:42:03;6.90;99.90
35635;DHT22;21757;43.610;1.440;2022-11-30T15:47:01;6.70;99.90
35635;DHT22;21757;43.610;1.440;2022-11-30T15:49:31;6.50;99.90
35635;DHT22;21757;43.610;1.440;2022-11-30T15:52:04;6.50;99.90
35635;DHT22;21757;43.610;1.440;2022-11-30T15:54:45;6.50;99.90
35635;DHT22;21757;43.610;1.440;2022-11-30T15:57:11;6.40;99.90
35635;DHT22;21757;43.610;1.440;2022-11-30T15:59:37;6.40;99.90
35635;DHT22;21757;43.610;1.440;2022-11-30T16:02:03;6.40;99.90
35635;DHT22;21757;43.610;1.440;2022-11-30T16:07:47;6.40;99.90
35635;DHT22;21757;43.610;1.440;2022-11-30T16:10:25;6.50;99.90
35635;DHT22;21757;43.610;1.440;2022-11-30T16:12:52;6.50;99.90
35635;DHT22;21757;43.610;1.440;2022-11-30T16:15:20;6.40;99.90
35635;DHT22;21757;43.610;1.440;2022-11-30T16:17:46;6.40;99.90
35635;DHT22;21757;43.610;1.440;2022-11-30T16:20:13;6.20;99.90
35635;DHT22;21757;43.610;1.440;2022-11-30T16:22:41;6.00;99.90
35635;DHT22;21757;43.610;1.440;2022-11-30T16:25:16;6.20;99.90
35635;DHT22;21757;43.610;1.440;2022-11-30T16:27:42;6.20;99.90
35635;DHT22;21757;43.610;1.440;2022-11-30T16:30:13;6.10;99.90
35635;DHT22;21757;43.610;1.440;2022-11-30T16:32:39;6.10;99.90
35635;DHT22;21757;43.610;1.440;2022-11-30T16:35:20;6.20;99.90
35635;DHT22;21757;43.610;1.440;2022-11-30T16:37:46;6.10;99.90
35635;DHT22;21757;43.610;1.440;2022-11-30T16:40:12;5.90;99.90
35635;DHT22;21757;43.610;1.440;2022-11-30T16:42:38;5.90;99.90
35635;DHT22;21757;43.610;1.440;2022-11-30T16:45:04;5.90;99.90
35635;DHT22;21757;43.610;1.440;2022-11-30T16:47:33;6.00;99.90
35635;DHT22;21757;43.610;1.440;2022-11-30T16:50:00;6.00;99.90
35635;DHT22;21757;43.610;1.440;2022-11-30T16:52:25;5.90;99.90
35635;DHT22;21757;43.610;1.440;2022-11-30T16:54:51;6.00;99.90
35635;DHT22;21757;43.610;1.440;2022-11-30T16:57:17;6.00;99.90
35635;DHT22;21757;43.610;1.440;2022-11-30T16:59:42;5.80;99.90
35635;DHT22;21757;43.610;1.440;2022-11-30T17:02:17;5.80;99.90
35635;DHT22;21757;43.610;1.440;2022-11-30T17:04:44;5.70;99.90
35635;DHT22;21757;43.610;1.440;2022-11-30T17:07:10;5.70;99.90
35635;DHT22;21757;43.610;1.440;2022-11-30T17:09:35;5.80;99.90
35635;DHT22;21757;43.610;1.440;2022-11-30T17:12:01;5.70;99.90
35635;DHT22;21757;43.610;1.440;2022-11-30T17:14:27;5.80;99.90
35635;DHT22;21757;43.610;1.440;2022-11-30T17:16:53;5.80;99.90
35635;DHT22;21757;43.610;1.440;2022-11-30T17:19:19;5.90;99.90
35635;DHT22;21757;43.610;1.440;2022-11-30T17:21:45;5.90;99.90
35635;DHT22;21757;43.610;1.440;2022-11-30T17:24:12;6.00;99.90
35635;DHT22;21757;43.610;1.440;2022-11-30T17:26:38;6.00;99.90
35635;DHT22;21757;43.610;1.440;2022-11-30T17:29:05;6.10;99.90
35635;DHT22;21757;43.610;1.440;2022-11-30T17:31:31;6.10;99.90
35635;DHT22;21757;43.610;1.440;2022-11-30T17:33:57;6.10;99.90
35635;DHT22;21757;43.610;1.440;2022-11-30T17:36:24;6.20;99.90
35635;DHT22;21757;43.610;1.440;2022-11-30T17:38:51;6.30;99.90
35635;DHT22;21757;43.610;1.440;2022-11-30T17:41:18;6.40;99.90
35635;DHT22;21757;43.610;1.440;2022-11-30T17:43:44;6.40;99.90
35635;DHT22;21757;43.610;1.440;2022-11-30T17:46:12;6.50;99.90
35635;DHT22;21757;43.610;1.440;2022-11-30T17:48:40;6.40;99.90
35635;DHT22;21757;43.610;1.440;2022-11-30T17:51:06;6.40;99.90
35635;DHT22;21757;43.610;1.440;2022-11-30T17:53:32;6.40;99.90
35635;DHT22;21757;43.610;1.440;2022-11-30T17:56:06;6.40;99.90
35635;DHT22;21757;43.610;1.440;2022-11-30T17:58:32;6.40;99.90
35635;DHT22;21757;43.610;1.440;2022-11-30T18:00:58;6.50;99.90